createdAt,value
2017-05-25T00:00:45.385Z,23.24
2017-05-25T00:03:12.836Z,25.82
2017-05-25T00:05:40.300Z,24.46
2017-05-25T00:08:07.796Z,22.36
2017-05-25T00:10:35.350Z,23.74
2017-05-25T00:13:02.898Z,23.48
2017-05-25T00:15:30.346Z,23.98
2017-05-25T00:17:57.793Z,22.42
2017-05-25T00:20:25.232Z,24.52
2017-05-25T00:22:52.764Z,23.82
2017-05-25T00:25:20.216Z,23.94
2017-05-25T00:27:47.753Z,25.66
2017-05-25T00:30:15.289Z,24.40
2017-05-25T00:32:42.734Z,22.38
2017-05-25T00:35:10.177Z,24.44
2017-05-25T00:37:37.620Z,26.02
2017-05-25T00:40:05.141Z,27.38
2017-05-25T00:42:32.593Z,24.42
2017-05-25T00:45:00.037Z,24.06
2017-05-25T00:47:27.493Z,30.12
2017-05-25T00:49:55.036Z,22.62
2017-05-25T00:52:22.586Z,26.24
2017-05-25T00:54:50.128Z,25.18
2017-05-25T00:57:17.569Z,25.24
2017-05-25T00:59:45.018Z,26.10
2017-05-25T01:02:12.457Z,22.32
2017-05-25T01:04:39.909Z,22.52
2017-05-25T01:07:07.359Z,23.66
2017-05-25T01:09:34.888Z,24.98
2017-05-25T01:12:02.333Z,23.34
2017-05-25T01:14:29.784Z,21.88
2017-05-25T01:16:57.313Z,24.28
2017-05-25T01:19:24.808Z,24.36
2017-05-25T01:21:52.248Z,24.20
2017-05-25T01:24:19.689Z,23.90
2017-05-25T01:26:47.137Z,23.16
2017-05-25T01:29:14.577Z,22.98
2017-05-25T01:31:42.033Z,22.64
2017-05-25T01:34:09.534Z,23.02
2017-05-25T01:36:37.177Z,23.40
2017-05-25T01:39:04.620Z,23.38
2017-05-25T01:41:32.145Z,23.70
2017-05-25T01:43:59.692Z,24.08
2017-05-25T01:46:27.129Z,25.16
2017-05-25T01:48:54.568Z,24.74
2017-05-25T01:51:22.020Z,24.24
2017-05-25T01:53:49.465Z,24.78
2017-05-25T01:56:17.005Z,24.22
2017-05-25T01:58:44.446Z,22.84
2017-05-25T02:01:11.958Z,23.36
2017-05-25T02:03:39.417Z,23.36
2017-05-25T02:06:06.873Z,22.80
2017-05-25T02:08:34.325Z,23.04
2017-05-25T02:11:01.765Z,23.54
2017-05-25T02:13:29.210Z,23.60
2017-05-25T02:15:56.657Z,23.26
2017-05-25T02:18:24.206Z,23.86
2017-05-25T02:20:51.744Z,24.52
2017-05-25T02:23:19.225Z,22.52
2017-05-25T02:25:46.741Z,22.98
2017-05-25T02:28:14.381Z,22.68
2017-05-25T02:30:41.825Z,22.94
2017-05-25T02:33:09.289Z,25.08
2017-05-25T02:35:36.723Z,22.82
2017-05-25T02:38:04.249Z,24.36
2017-05-25T02:40:31.709Z,24.82
2017-05-25T02:42:59.150Z,24.72
2017-05-25T02:45:26.613Z,22.90
2017-05-25T02:47:54.069Z,25.08
2017-05-25T02:50:21.508Z,23.84
2017-05-25T02:52:48.956Z,25.76
2017-05-25T02:55:16.461Z,24.10
2017-05-25T02:57:43.905Z,24.60
2017-05-25T03:00:11.345Z,23.10
2017-05-25T03:02:38.789Z,22.80
2017-05-25T03:05:06.317Z,24.12
2017-05-25T03:07:33.758Z,22.46
2017-05-25T03:10:01.310Z,26.26
2017-05-25T03:12:28.852Z,22.52
2017-05-25T03:14:56.297Z,23.16
2017-05-25T03:17:23.745Z,25.06
2017-05-25T03:19:51.189Z,24.82
2017-05-25T03:22:18.646Z,23.78
2017-05-25T03:24:46.095Z,22.86
2017-05-25T03:27:13.569Z,22.48
2017-05-25T03:29:41.021Z,23.10
2017-05-25T03:32:08.461Z,24.06
2017-05-25T03:34:35.912Z,23.20
2017-05-25T03:37:04.305Z,23.12
2017-05-25T03:39:31.764Z,21.34
2017-05-25T03:41:59.236Z,22.60
2017-05-25T03:44:26.685Z,24.00
2017-05-25T03:46:54.152Z,22.42
2017-05-25T03:49:21.589Z,23.90
2017-05-25T03:51:49.033Z,21.96
2017-05-25T03:54:16.500Z,22.26
2017-05-25T03:56:43.944Z,22.42
2017-05-25T03:59:11.565Z,25.38
2017-05-25T04:01:39.002Z,23.30
2017-05-25T04:04:06.991Z,22.04
2017-05-25T04:06:34.461Z,22.08
2017-05-25T04:09:02.889Z,22.80
2017-05-25T04:11:30.467Z,23.92
2017-05-25T04:13:57.893Z,23.46
2017-05-25T04:16:25.353Z,23.62
2017-05-25T04:18:52.806Z,23.66
2017-05-25T04:21:20.313Z,22.84
2017-05-25T04:23:47.770Z,21.52
2017-05-25T04:26:15.321Z,23.68
2017-05-25T04:28:42.849Z,21.64
2017-05-25T04:31:10.391Z,23.98
2017-05-25T04:33:37.932Z,23.66
2017-05-25T04:36:05.395Z,24.14
2017-05-25T04:38:32.837Z,24.84
2017-05-25T04:41:00.337Z,23.52
2017-05-25T04:43:27.786Z,23.96
2017-05-25T04:46:00.025Z,24.74
2017-05-25T04:48:27.477Z,24.58
2017-05-25T04:50:54.946Z,24.36
2017-05-25T04:53:22.390Z,22.88
2017-05-25T04:55:49.931Z,24.58
2017-05-25T04:58:17.364Z,23.82
2017-05-25T05:00:44.912Z,26.84
2017-05-25T05:03:12.360Z,24.84
2017-05-25T05:05:39.909Z,27.30
2017-05-25T05:08:07.360Z,26.96
2017-05-25T05:10:34.897Z,28.42
2017-05-25T05:13:02.513Z,37.16
2017-05-25T05:15:29.937Z,31.48
2017-05-25T05:17:57.412Z,30.68
2017-05-25T05:20:24.887Z,30.32
2017-05-25T05:22:52.325Z,28.78
2017-05-25T05:25:19.876Z,29.54
2017-05-25T05:27:47.402Z,28.60
2017-05-25T05:30:14.857Z,28.10
2017-05-25T05:32:42.295Z,30.22
2017-05-25T05:35:09.802Z,29.18
2017-05-25T05:37:37.267Z,28.94
2017-05-25T05:40:04.717Z,26.76
2017-05-25T05:42:32.169Z,26.36
2017-05-25T05:44:59.708Z,27.80
2017-05-25T05:47:27.160Z,29.54
2017-05-25T05:49:54.622Z,28.88
2017-05-25T05:52:22.099Z,26.76
2017-05-25T05:54:49.552Z,26.28
2017-05-25T05:57:16.996Z,27.40
2017-05-25T05:59:44.448Z,28.66
2017-05-25T06:02:11.898Z,27.36
2017-05-25T06:04:39.331Z,24.34
2017-05-25T06:07:06.793Z,24.30
2017-05-25T06:09:34.305Z,26.86
2017-05-25T06:12:01.741Z,29.60
2017-05-25T06:14:29.232Z,26.94
2017-05-25T06:16:56.681Z,27.02
2017-05-25T06:19:24.131Z,25.20
2017-05-25T06:21:51.577Z,24.84
2017-05-25T06:24:19.033Z,24.40
2017-05-25T06:26:46.471Z,25.06
2017-05-25T06:29:13.968Z,22.14
2017-05-25T06:31:41.418Z,20.52
2017-05-25T06:34:08.961Z,22.92
2017-05-25T06:36:36.404Z,21.04
2017-05-25T06:39:03.843Z,19.42
2017-05-25T06:41:31.289Z,21.76
2017-05-25T06:43:58.740Z,19.40
2017-05-25T06:46:26.172Z,18.42
2017-05-25T06:48:53.621Z,18.90
2017-05-25T06:51:21.068Z,19.98
2017-05-25T06:53:48.522Z,21.38
2017-05-25T06:56:16.058Z,20.10
2017-05-25T06:58:43.496Z,16.14
2017-05-25T07:01:10.949Z,16.74
2017-05-25T07:03:38.486Z,17.80
2017-05-25T07:06:06.013Z,15.58
2017-05-25T07:08:33.456Z,15.04
2017-05-25T07:11:00.904Z,16.30
2017-05-25T07:13:28.357Z,13.96
2017-05-25T07:15:55.812Z,14.44
2017-05-25T07:18:23.340Z,13.28
2017-05-25T07:20:50.799Z,14.90
2017-05-25T07:23:18.233Z,14.02
2017-05-25T07:25:45.681Z,12.90
2017-05-25T07:28:13.125Z,14.60
2017-05-25T07:30:40.569Z,14.66
2017-05-25T07:33:08.098Z,14.26
2017-05-25T07:35:35.537Z,14.08
2017-05-25T07:38:03.083Z,14.08
2017-05-25T07:40:30.528Z,16.30
2017-05-25T07:42:58.193Z,14.42
2017-05-25T07:45:25.628Z,16.60
2017-05-25T07:47:53.061Z,14.68
2017-05-25T07:50:20.513Z,14.50
2017-05-25T07:52:47.972Z,15.66
2017-05-25T07:55:15.593Z,16.64
2017-05-25T07:57:43.031Z,16.62
2017-05-25T08:00:10.480Z,15.84
2017-05-25T08:02:37.933Z,16.40
2017-05-25T08:05:05.385Z,13.28
2017-05-25T08:07:32.841Z,14.28
2017-05-25T08:10:00.345Z,14.34
2017-05-25T08:12:27.891Z,16.70
2017-05-25T08:14:55.340Z,17.50
2017-05-25T08:17:22.781Z,15.40
2017-05-25T08:19:50.231Z,16.30
2017-05-25T08:22:17.674Z,15.94
2017-05-25T08:24:45.120Z,16.40
2017-05-25T08:27:12.594Z,15.42
2017-05-25T08:29:40.049Z,15.78
2017-05-25T08:32:07.580Z,13.40
2017-05-25T08:34:35.026Z,15.44
2017-05-25T08:37:02.512Z,12.70
2017-05-25T08:39:30.061Z,15.20
2017-05-25T08:41:57.507Z,13.26
2017-05-25T08:44:25.054Z,12.76
2017-05-25T08:46:52.504Z,12.06
2017-05-25T08:49:19.955Z,13.20
2017-05-25T08:51:47.401Z,19.46
2017-05-25T08:54:14.842Z,14.12
2017-05-25T08:56:42.356Z,10.40
2017-05-25T08:59:09.803Z,9.96
2017-05-25T09:01:37.346Z,9.84
2017-05-25T09:04:04.897Z,10.36
2017-05-25T09:06:32.341Z,9.08
2017-05-25T09:08:59.877Z,9.12
2017-05-25T09:11:27.321Z,9.02
2017-05-25T09:13:54.866Z,8.08
2017-05-25T09:16:22.317Z,10.00
2017-05-25T09:18:49.762Z,9.40
2017-05-25T09:21:17.202Z,7.44
2017-05-25T09:23:44.845Z,9.14
2017-05-25T09:26:12.390Z,28.44
2017-05-25T09:28:39.838Z,8.48
2017-05-25T09:31:07.893Z,9.28
2017-05-25T09:33:35.432Z,9.36
2017-05-25T09:36:02.877Z,8.40
2017-05-25T09:38:30.312Z,5.90
2017-05-25T09:40:57.753Z,4.82
2017-05-25T09:43:25.192Z,4.02
2017-05-25T09:45:52.636Z,3.78
2017-05-25T09:48:20.085Z,4.00
2017-05-25T09:50:47.521Z,3.62
2017-05-25T09:53:15.077Z,3.98
2017-05-25T09:55:42.548Z,5.20
2017-05-25T09:58:10.065Z,6.72
2017-05-25T10:00:37.605Z,5.84
2017-05-25T10:03:05.149Z,6.50
2017-05-25T10:05:32.598Z,5.94
2017-05-25T10:08:00.034Z,5.70
2017-05-25T10:10:27.572Z,5.64
2017-05-25T10:12:55.120Z,28.42
2017-05-25T10:15:22.640Z,9.52
2017-05-25T10:17:50.080Z,6.00
2017-05-25T10:20:17.513Z,4.90
2017-05-25T10:22:44.961Z,5.04
2017-05-25T10:25:12.448Z,4.88
2017-05-25T10:27:39.937Z,4.52
2017-05-25T10:30:07.388Z,4.30
2017-05-25T10:32:34.837Z,4.12
2017-05-25T10:35:02.275Z,4.00
2017-05-25T10:37:29.718Z,4.68
2017-05-25T10:39:57.193Z,4.54
2017-05-25T10:42:24.647Z,4.46
2017-05-25T10:44:52.085Z,4.88
2017-05-25T10:47:19.535Z,4.84
2017-05-25T10:49:46.974Z,5.62
2017-05-25T10:52:14.405Z,4.38
2017-05-25T10:54:41.853Z,4.34
2017-05-25T10:57:09.291Z,4.12
2017-05-25T10:59:36.721Z,3.80
2017-05-25T11:02:04.181Z,4.56
2017-05-25T11:04:31.613Z,4.58
2017-05-25T11:06:59.067Z,7.70
2017-05-25T11:09:26.511Z,5.70
2017-05-25T11:11:54.048Z,4.86
2017-05-25T11:14:21.493Z,4.72
2017-05-25T11:16:49.015Z,3.96
2017-05-25T11:19:16.608Z,4.36
2017-05-25T11:21:44.013Z,3.40
2017-05-25T11:24:11.456Z,4.66
2017-05-25T11:26:38.925Z,6.18
2017-05-25T11:29:06.377Z,3.86
2017-05-25T11:31:33.826Z,4.18
2017-05-25T11:34:01.266Z,3.44
2017-05-25T11:36:28.692Z,4.10
2017-05-25T11:38:56.158Z,3.20
2017-05-25T11:41:23.609Z,3.68
2017-05-25T11:43:51.141Z,4.02
2017-05-25T11:46:18.576Z,3.46
2017-05-25T11:48:46.012Z,4.40
2017-05-25T11:51:13.449Z,4.68
2017-05-25T11:53:40.893Z,3.80
2017-05-25T11:56:08.397Z,3.70
2017-05-25T11:58:35.939Z,8.10
2017-05-25T12:01:03.477Z,11.54
2017-05-25T12:03:30.940Z,4.10
2017-05-25T12:05:58.578Z,3.48
2017-05-25T12:08:26.013Z,3.54
2017-05-25T12:10:53.444Z,4.26
2017-05-25T12:13:20.889Z,3.98
2017-05-25T12:15:48.352Z,3.72
2017-05-25T12:18:15.878Z,4.48
2017-05-25T12:20:43.401Z,3.80
2017-05-25T12:23:10.854Z,3.00
2017-05-25T12:25:38.293Z,3.24
2017-05-25T12:28:06.040Z,2.96
2017-05-25T12:30:33.480Z,3.06
2017-05-25T12:33:00.927Z,3.06
2017-05-25T12:35:28.382Z,3.02
2017-05-25T12:37:55.813Z,3.24
2017-05-25T12:40:23.371Z,19.32
2017-05-25T12:42:50.973Z,4.28
2017-05-25T12:45:18.450Z,3.30
2017-05-25T12:47:45.889Z,3.92
2017-05-25T12:50:13.328Z,3.68
2017-05-25T12:52:40.758Z,2.82
2017-05-25T12:55:08.236Z,4.02
2017-05-25T12:57:35.672Z,3.62
2017-05-25T13:00:03.108Z,3.58
2017-05-25T13:02:30.562Z,4.00
2017-05-25T13:04:58.021Z,3.20
2017-05-25T13:07:25.468Z,3.66
2017-05-25T13:09:53.007Z,3.02
2017-05-25T13:12:20.441Z,3.66
2017-05-25T13:14:47.909Z,3.42
2017-05-25T13:17:15.345Z,3.02
2017-05-25T13:19:42.786Z,3.26
2017-05-25T13:22:10.228Z,2.92
2017-05-25T13:24:37.686Z,2.46
2017-05-25T13:27:05.165Z,2.90
2017-05-25T13:29:32.604Z,3.18
2017-05-25T13:32:00.154Z,11.44
2017-05-25T13:34:27.613Z,3.64
2017-05-25T13:36:55.064Z,6.84
2017-05-25T13:39:22.862Z,2.30
2017-05-25T13:41:50.304Z,2.66
2017-05-25T13:44:17.785Z,3.30
2017-05-25T13:46:45.229Z,3.64
2017-05-25T13:49:12.770Z,3.00
2017-05-25T13:51:40.220Z,2.12
2017-05-25T13:54:07.662Z,2.78
2017-05-25T13:56:35.113Z,2.46
2017-05-25T13:59:02.548Z,2.58
2017-05-25T14:01:30.085Z,2.58
2017-05-25T14:03:57.541Z,2.42
2017-05-25T14:06:24.991Z,2.16
2017-05-25T14:08:52.528Z,2.14
2017-05-25T14:11:19.963Z,2.94
2017-05-25T14:13:47.400Z,2.76
2017-05-25T14:16:14.912Z,2.96
2017-05-25T14:18:42.362Z,3.16
2017-05-25T14:21:09.801Z,3.52
2017-05-25T14:23:37.247Z,3.48
2017-05-25T14:26:04.688Z,6.78
2017-05-25T14:28:32.207Z,2.64
2017-05-25T14:30:59.648Z,3.12
2017-05-25T14:33:27.093Z,2.54
2017-05-25T14:35:54.564Z,4.10
2017-05-25T14:38:22.044Z,2.40
2017-05-25T14:40:49.507Z,2.74
2017-05-25T14:43:16.946Z,2.74
2017-05-25T14:45:44.401Z,2.80
2017-05-25T14:48:11.837Z,3.24
2017-05-25T14:50:39.277Z,2.56
2017-05-25T14:53:06.720Z,2.14
2017-05-25T14:55:34.188Z,2.54
2017-05-25T14:58:01.644Z,2.42
2017-05-25T15:00:29.133Z,2.10
2017-05-25T15:02:56.566Z,2.72
2017-05-25T15:05:24.009Z,3.38
2017-05-25T15:07:51.455Z,2.56
2017-05-25T15:10:18.897Z,2.72
2017-05-25T15:12:46.338Z,2.90
2017-05-25T15:15:13.956Z,3.08
2017-05-25T15:17:41.385Z,2.58
2017-05-25T15:20:08.833Z,2.74
2017-05-25T15:22:36.317Z,3.54
2017-05-25T15:25:03.858Z,2.12
2017-05-25T15:27:31.287Z,2.36
2017-05-25T15:29:58.732Z,2.28
2017-05-25T15:32:26.164Z,2.96
2017-05-25T15:34:53.716Z,2.42
2017-05-25T15:37:21.263Z,3.12
2017-05-25T15:39:48.689Z,2.72
2017-05-25T15:42:16.141Z,2.34
2017-05-25T15:44:43.625Z,2.10
2017-05-25T15:47:11.074Z,2.16
2017-05-25T15:49:38.602Z,2.08
2017-05-25T15:52:06.118Z,2.22
2017-05-25T15:54:33.541Z,4.12
2017-05-25T15:57:01.026Z,2.10
2017-05-25T15:59:28.468Z,2.52
2017-05-25T16:01:55.901Z,2.12
2017-05-25T16:04:23.349Z,2.72
2017-05-25T16:06:50.790Z,4.48
2017-05-25T16:09:18.223Z,2.88
2017-05-25T16:11:45.680Z,2.24
2017-05-25T16:14:13.105Z,1.70
2017-05-25T16:16:40.549Z,2.08
2017-05-25T16:19:07.993Z,1.98
2017-05-25T16:21:35.503Z,1.74
2017-05-25T16:24:02.933Z,1.96
2017-05-25T16:26:30.381Z,2.80
2017-05-25T16:28:57.826Z,1.80
2017-05-25T16:31:25.273Z,1.80
2017-05-25T16:33:52.745Z,1.86
2017-05-25T16:36:20.192Z,1.94
2017-05-25T16:38:47.699Z,1.96
2017-05-25T16:41:15.258Z,1.86
2017-05-25T16:43:42.767Z,3.40
2017-05-25T16:46:10.208Z,2.56
2017-05-25T16:48:37.666Z,2.00
2017-05-25T16:51:05.199Z,2.76
2017-05-25T16:53:32.922Z,2.20
2017-05-25T16:56:00.404Z,2.00
2017-05-25T16:58:27.850Z,2.70
2017-05-25T17:00:55.281Z,2.58
2017-05-25T17:03:22.795Z,2.10
2017-05-25T17:05:50.184Z,2.16
2017-05-25T17:08:17.637Z,2.20
2017-05-25T17:10:45.118Z,2.34
2017-05-25T17:13:12.574Z,2.26
2017-05-25T17:15:40.012Z,1.76
2017-05-25T17:18:07.670Z,2.46
2017-05-25T17:20:35.104Z,2.48
2017-05-25T17:23:02.536Z,1.90
2017-05-25T17:25:30.032Z,1.88
2017-05-25T17:27:57.452Z,2.12
2017-05-25T17:30:24.946Z,1.84
2017-05-25T17:32:52.390Z,2.16
2017-05-25T17:35:19.818Z,1.94
2017-05-25T17:37:47.245Z,4.20
2017-05-25T17:40:14.704Z,2.72
2017-05-25T17:42:42.132Z,2.06
2017-05-25T17:45:09.573Z,2.10
2017-05-25T17:47:37.040Z,2.32
2017-05-25T17:50:04.476Z,3.34
2017-05-25T17:52:31.906Z,2.22
2017-05-25T17:54:59.361Z,3.52
2017-05-25T17:57:26.796Z,3.52
2017-05-25T17:59:54.254Z,20.12
2017-05-25T18:02:21.703Z,2.78
2017-05-25T18:04:49.242Z,8.96
2017-05-25T18:07:16.889Z,2.52
2017-05-25T18:09:44.321Z,2.56
2017-05-25T18:12:11.810Z,2.22
2017-05-25T18:14:39.369Z,2.20
2017-05-25T18:17:06.812Z,2.64
2017-05-25T18:19:34.242Z,2.38
2017-05-25T18:22:01.702Z,1.88
2017-05-25T18:24:29.137Z,2.06
2017-05-25T18:26:56.589Z,2.30
2017-05-25T18:29:24.069Z,1.78
2017-05-25T18:31:51.500Z,2.92
2017-05-25T18:34:18.943Z,3.70
2017-05-25T18:36:46.402Z,2.76
2017-05-25T18:39:13.834Z,4.02
2017-05-25T18:41:41.292Z,3.12
2017-05-25T18:44:08.772Z,2.98
2017-05-25T18:46:37.076Z,2.70
2017-05-25T18:49:04.523Z,3.78
2017-05-25T18:51:31.969Z,4.34
2017-05-25T18:53:59.400Z,7.48
2017-05-25T18:56:26.837Z,3.84
2017-05-25T18:58:54.296Z,5.26
2017-05-25T19:01:22.712Z,5.48
2017-05-25T19:03:50.159Z,6.54
2017-05-25T19:06:17.635Z,6.28
2017-05-25T19:08:45.080Z,9.56
2017-05-25T19:11:12.618Z,7.60
2017-05-25T19:13:40.086Z,2.90
2017-05-25T19:16:07.518Z,4.40
2017-05-25T19:18:34.949Z,4.38
2017-05-25T19:21:02.393Z,5.46
2017-05-25T19:23:29.829Z,2.64
2017-05-25T19:25:57.329Z,2.70
2017-05-25T19:28:24.766Z,2.60
2017-05-25T19:30:52.209Z,2.92
2017-05-25T19:33:19.669Z,3.36
2017-05-25T19:35:47.102Z,2.22
2017-05-25T19:38:14.570Z,4.42
2017-05-25T19:40:42.002Z,2.44
2017-05-25T19:43:09.454Z,2.64
2017-05-25T19:45:36.903Z,2.72
2017-05-25T19:48:04.339Z,2.78
2017-05-25T19:50:31.795Z,2.40
2017-05-25T19:52:59.256Z,2.80
2017-05-25T19:55:26.702Z,2.72
2017-05-25T19:57:54.150Z,3.32
2017-05-25T20:00:21.660Z,3.40
2017-05-25T20:02:49.255Z,3.30
2017-05-25T20:05:16.758Z,3.50
2017-05-25T20:07:44.201Z,3.50
2017-05-25T20:10:11.769Z,4.58
2017-05-25T20:12:39.289Z,4.08
2017-05-25T20:15:06.745Z,4.28
2017-05-25T20:17:34.280Z,4.44
2017-05-25T20:20:01.713Z,4.62
2017-05-25T20:22:29.255Z,5.60
2017-05-25T20:24:56.809Z,5.52
2017-05-25T20:27:24.337Z,5.80
2017-05-25T20:29:51.794Z,6.48
2017-05-25T20:32:19.232Z,5.46
2017-05-25T20:34:46.704Z,6.50
2017-05-25T20:37:14.146Z,6.28
2017-05-25T20:39:41.599Z,6.00
2017-05-25T20:42:09.024Z,6.00
2017-05-25T20:44:36.473Z,5.32
2017-05-25T20:47:04.055Z,5.34
2017-05-25T20:49:31.512Z,5.98
2017-05-25T20:51:58.950Z,5.38
2017-05-25T20:54:26.386Z,6.66
2017-05-25T20:56:54.369Z,5.76
2017-05-25T20:59:21.811Z,6.52
2017-05-25T21:01:49.258Z,6.70
2017-05-25T21:04:16.701Z,6.90
2017-05-25T21:06:44.149Z,5.76
2017-05-25T21:09:11.983Z,7.06
2017-05-25T21:11:39.420Z,6.08
2017-05-25T21:14:07.281Z,7.80
2017-05-25T21:16:34.741Z,7.38
2017-05-25T21:19:02.578Z,7.58
2017-05-25T21:21:30.013Z,8.16
2017-05-25T21:23:57.466Z,7.76
2017-05-25T21:26:24.904Z,7.02
2017-05-25T21:28:52.346Z,6.96
2017-05-25T21:31:19.797Z,7.68
2017-05-25T21:33:48.178Z,6.60
2017-05-25T21:36:15.632Z,5.70
2017-05-25T21:38:43.084Z,5.78
2017-05-25T21:41:10.523Z,5.24
2017-05-25T21:43:37.949Z,5.74
2017-05-25T21:46:05.393Z,5.74
2017-05-25T21:48:32.845Z,14.88
2017-05-25T21:51:00.328Z,10.24
2017-05-25T21:53:27.765Z,10.86
2017-05-25T21:55:55.241Z,23.84
2017-05-25T21:58:22.678Z,7.20
2017-05-25T22:00:50.120Z,5.48
2017-05-25T22:03:17.577Z,6.66
2017-05-25T22:05:45.008Z,5.20
2017-05-25T22:08:12.448Z,5.30
2017-05-25T22:10:39.893Z,4.78
2017-05-25T22:13:07.341Z,4.82
2017-05-25T22:15:34.785Z,4.30
2017-05-25T22:18:02.241Z,4.76
2017-05-25T22:20:29.737Z,4.64
2017-05-25T22:22:57.189Z,4.64
2017-05-25T22:25:24.661Z,4.42
2017-05-25T22:27:52.101Z,3.62
2017-05-25T22:30:19.553Z,3.84
2017-05-25T22:32:46.981Z,4.40
2017-05-25T22:35:14.452Z,4.86
2017-05-25T22:37:41.896Z,4.32
2017-05-25T22:40:09.336Z,3.88
2017-05-25T22:42:36.781Z,4.06
2017-05-25T22:45:04.439Z,3.40
2017-05-25T22:47:31.879Z,4.12
2017-05-25T22:49:59.417Z,4.00
2017-05-25T22:52:26.869Z,5.20
2017-05-25T22:54:54.309Z,4.40
2017-05-25T22:57:21.747Z,3.92
2017-05-25T22:59:49.190Z,5.12
2017-05-25T23:02:16.625Z,4.34
2017-05-25T23:04:44.069Z,5.04
2017-05-25T23:07:11.513Z,4.70
2017-05-25T23:09:38.956Z,4.90
2017-05-25T23:12:06.396Z,6.10
2017-05-25T23:14:33.870Z,5.50
2017-05-25T23:17:01.429Z,5.90
2017-05-25T23:19:28.864Z,6.18
2017-05-25T23:21:56.310Z,4.96
2017-05-25T23:24:23.753Z,5.08
2017-05-25T23:26:51.200Z,4.94
2017-05-25T23:29:18.646Z,3.92
2017-05-25T23:31:46.150Z,5.44
2017-05-25T23:34:13.566Z,5.04
2017-05-25T23:36:41.024Z,4.72
2017-05-25T23:39:08.479Z,4.50
2017-05-25T23:41:35.936Z,5.08
2017-05-25T23:44:03.373Z,5.12
2017-05-25T23:46:30.829Z,5.12
2017-05-25T23:48:58.278Z,4.84
2017-05-25T23:51:25.758Z,4.34
2017-05-25T23:53:53.202Z,3.98
2017-05-25T23:56:20.640Z,3.64
2017-05-25T23:58:48.089Z,4.48
